createdAt,value
2019-04-23T00:02:47.715Z,3.30
2019-04-23T00:04:54.105Z,2.37
2019-04-23T00:07:51.851Z,2.77
2019-04-23T00:10:06.266Z,2.43
2019-04-23T00:12:44.067Z,2.20
2019-04-23T00:17:38.902Z,2.60
2019-04-23T00:20:06.190Z,3.50
2019-04-23T00:22:46.538Z,2.53
2019-04-23T00:25:44.986Z,2.87
2019-04-23T00:28:02.580Z,2.73
2019-04-23T00:30:36.547Z,2.77
2019-04-23T00:33:01.676Z,3.10
2019-04-23T00:35:29.122Z,2.70
2019-04-23T00:38:02.227Z,2.53
2019-04-23T00:40:35.376Z,2.70
2019-04-23T00:43:06.635Z,3.00
2019-04-23T00:48:12.596Z,2.97
2019-04-23T00:50:38.523Z,3.07
2019-04-23T00:53:07.511Z,3.10
2019-04-23T00:55:31.282Z,2.93
2019-04-23T00:58:10.408Z,2.90
2019-04-23T01:00:43.558Z,3.20
2019-04-23T01:03:07.476Z,2.90
2019-04-23T01:05:37.018Z,3.13
2019-04-23T01:08:06.277Z,3.33
2019-04-23T01:10:54.039Z,2.90
2019-04-23T01:13:14.863Z,3.40
2019-04-23T01:15:46.208Z,3.37
2019-04-23T01:18:18.454Z,3.00
2019-04-23T01:20:50.960Z,3.37
2019-04-23T01:23:16.036Z,3.20
2019-04-23T01:25:58.149Z,3.47
2019-04-23T01:28:45.833Z,3.33
2019-04-23T01:31:18.624Z,3.47
2019-04-23T01:33:46.168Z,3.27
2019-04-23T01:38:45.586Z,3.10
2019-04-23T01:41:14.570Z,3.43
2019-04-23T01:43:41.045Z,3.40
2019-04-23T01:46:12.906Z,3.60
2019-04-23T01:48:46.834Z,3.63
2019-04-23T01:51:08.152Z,3.80
2019-04-23T01:53:45.531Z,2.90
2019-04-23T01:56:11.147Z,3.93
2019-04-23T01:58:57.105Z,3.40
2019-04-23T02:01:34.302Z,3.80
2019-04-23T02:03:46.639Z,3.57
2019-04-23T02:06:13.571Z,3.40
2019-04-23T02:08:48.719Z,3.43
2019-04-23T02:11:11.513Z,3.70
2019-04-23T02:13:51.498Z,3.73
2019-04-23T02:16:19.399Z,3.90
2019-04-23T02:18:49.089Z,3.70
2019-04-23T02:21:15.265Z,3.90
2019-04-23T02:23:48.577Z,3.70
2019-04-23T02:26:22.786Z,3.80
2019-04-23T02:28:53.501Z,4.00
2019-04-23T02:31:44.602Z,4.40
2019-04-23T02:36:29.464Z,3.97
2019-04-23T02:39:02.824Z,3.80
2019-04-23T02:44:09.216Z,4.10
2019-04-23T02:46:13.237Z,3.70
2019-04-23T02:51:39.606Z,4.47
2019-04-23T02:59:04.266Z,3.60
2019-04-23T03:06:32.164Z,3.80
2019-04-23T03:11:34.359Z,4.07
2019-04-23T03:14:00.632Z,3.80
2019-04-23T03:16:46.289Z,3.80
2019-04-23T03:39:40.148Z,3.70
2019-04-23T03:41:59.566Z,4.07
2019-04-23T03:44:32.458Z,4.20
2019-04-23T03:49:33.281Z,4.60
2019-04-23T03:52:06.756Z,4.20
2019-04-23T03:57:17.043Z,4.10
2019-04-23T03:59:46.776Z,4.57
2019-04-23T04:02:15.520Z,4.70
2019-04-23T04:04:35.032Z,3.70
2019-04-23T04:07:30.772Z,3.60
2019-04-23T04:09:34.866Z,4.17
2019-04-23T04:12:07.877Z,3.97
2019-04-23T04:19:44.928Z,3.60
2019-04-23T04:24:37.821Z,4.03
2019-04-23T04:27:06.305Z,3.73
2019-04-23T04:32:00.340Z,3.93
2019-04-23T04:42:08.760Z,4.60
2019-04-23T04:44:43.505Z,3.80
2019-04-23T04:47:15.812Z,4.90
2019-04-23T04:49:44.389Z,4.20
2019-04-23T04:54:41.327Z,4.40
2019-04-23T04:57:12.909Z,3.67
2019-04-23T05:02:14.627Z,3.80
2019-04-23T05:04:55.835Z,3.50
2019-04-23T05:07:11.274Z,4.20
2019-04-23T05:09:47.612Z,3.93
2019-04-23T05:12:25.506Z,4.50
2019-04-23T05:14:44.825Z,3.90
2019-04-23T05:22:20.858Z,4.17
2019-04-23T05:27:29.279Z,4.53
2019-04-23T05:29:41.464Z,4.60
2019-04-23T05:32:04.451Z,5.10
2019-04-23T05:34:45.129Z,4.20
2019-04-23T05:37:11.645Z,4.17
2019-04-23T05:39:44.552Z,4.23
2019-04-23T05:42:11.225Z,4.17
2019-04-23T05:44:47.869Z,4.67
2019-04-23T05:49:45.433Z,4.40
2019-04-23T05:52:36.025Z,4.10
2019-04-23T05:54:49.893Z,4.60
2019-04-23T05:57:27.185Z,4.60
2019-04-23T06:02:18.259Z,4.83
2019-04-23T06:04:43.060Z,4.63
2019-04-23T06:09:46.591Z,4.80
2019-04-23T06:12:15.666Z,5.00
2019-04-23T06:17:22.918Z,4.73
2019-04-23T06:19:49.818Z,5.13
2019-04-23T06:27:24.452Z,4.60
2019-04-23T06:29:51.543Z,5.40
2019-04-23T06:32:19.627Z,5.10
2019-04-23T06:37:36.134Z,5.23
2019-04-23T06:39:50.352Z,5.10
2019-04-23T06:42:18.137Z,4.90
2019-04-23T06:44:57.929Z,4.90
2019-04-23T06:47:36.142Z,4.93
2019-04-23T06:50:08.524Z,4.23
2019-04-23T06:52:21.688Z,5.10
2019-04-23T06:55:08.782Z,4.43
2019-04-23T06:57:22.356Z,4.50
2019-04-23T06:59:55.098Z,4.50
2019-04-23T07:02:25.847Z,4.97
2019-04-23T07:10:15.819Z,4.93
2019-04-23T07:12:36.480Z,5.20
2019-04-23T07:14:59.588Z,4.50
2019-04-23T07:17:24.695Z,4.80
2019-04-23T07:20:12.796Z,4.40
2019-04-23T07:22:45.436Z,4.00
2019-04-23T07:25:00.333Z,4.17
2019-04-23T07:27:25.769Z,11.40
2019-04-23T07:30:03.966Z,9.00
2019-04-23T07:32:30.624Z,6.23
2019-04-23T07:37:32.304Z,7.13
2019-04-23T07:42:55.170Z,5.60
2019-04-23T07:45:24.010Z,4.50
2019-04-23T07:50:43.849Z,4.27
2019-04-23T07:58:22.180Z,4.43
2019-04-23T08:08:12.196Z,3.77
2019-04-23T08:11:03.030Z,4.20
2019-04-23T08:13:24.226Z,4.30
2019-04-23T08:15:49.833Z,4.40
2019-04-23T08:18:18.034Z,4.13
2019-04-23T08:20:49.143Z,4.77
2019-04-23T08:23:31.987Z,3.73
2019-04-23T08:26:19.475Z,4.30
2019-04-23T08:28:52.093Z,3.93
2019-04-23T08:31:07.758Z,4.40
2019-04-23T08:33:41.985Z,4.20
2019-04-23T08:36:12.363Z,3.57
2019-04-23T08:41:21.493Z,4.00
2019-04-23T08:43:51.747Z,4.73
2019-04-23T08:46:26.648Z,4.23
2019-04-23T08:53:51.298Z,3.70
2019-04-23T08:56:24.100Z,3.83
2019-04-23T08:58:49.328Z,4.20
2019-04-23T09:01:50.228Z,4.23
2019-04-23T09:03:45.924Z,3.83
2019-04-23T09:06:21.742Z,4.83
2019-04-23T09:08:50.405Z,3.70
2019-04-23T09:11:35.815Z,4.93
2019-04-23T09:13:57.551Z,4.00
2019-04-23T09:16:27.314Z,4.30
2019-04-23T09:18:52.820Z,4.30
2019-04-23T09:21:23.983Z,4.10
2019-04-23T09:23:51.721Z,4.00
2019-04-23T09:26:22.711Z,4.47
2019-04-23T09:28:56.706Z,4.23
2019-04-23T09:31:55.459Z,4.27
2019-04-23T09:36:51.084Z,3.97
2019-04-23T09:39:35.093Z,4.10
2019-04-23T09:42:08.911Z,4.80
2019-04-23T09:44:58.341Z,3.90
2019-04-23T09:47:47.422Z,3.80
2019-04-23T09:50:16.009Z,4.13
2019-04-23T09:52:52.705Z,3.83
2019-04-23T09:57:47.122Z,3.33
2019-04-23T10:00:18.711Z,4.00
2019-04-23T10:02:34.294Z,4.43
2019-04-23T10:05:02.934Z,4.00
2019-04-23T10:07:27.011Z,3.90
2019-04-23T10:09:47.819Z,4.10
2019-04-23T10:12:17.749Z,4.57
2019-04-23T10:14:58.744Z,4.80
2019-04-23T10:17:17.975Z,4.47
2019-04-23T10:19:46.720Z,4.57
2019-04-23T10:22:15.302Z,4.80
2019-04-23T10:24:45.445Z,4.90
2019-04-23T10:27:14.850Z,3.83
2019-04-23T10:29:43.866Z,4.10
2019-04-23T10:32:13.601Z,4.07
2019-04-23T10:34:52.180Z,5.37
2019-04-23T10:37:13.594Z,4.57
2019-04-23T10:39:46.883Z,4.23
2019-04-23T10:42:14.080Z,5.20
2019-04-23T10:44:50.418Z,4.40
2019-04-23T10:48:11.631Z,4.90
2019-04-23T10:53:28.377Z,4.33
2019-04-23T10:58:17.317Z,4.37
2019-04-23T11:00:46.640Z,4.17
2019-04-23T11:03:33.507Z,4.80
2019-04-23T11:08:17.606Z,5.13
2019-04-23T11:10:46.726Z,4.30
2019-04-23T11:13:25.717Z,4.87
2019-04-23T11:16:11.087Z,4.43
2019-04-23T11:18:24.611Z,4.90
2019-04-23T11:21:12.020Z,4.33
2019-04-23T11:23:27.627Z,4.67
2019-04-23T11:25:48.451Z,4.37
2019-04-23T11:28:30.369Z,4.00
2019-04-23T11:30:54.392Z,4.00
2019-04-23T11:33:35.672Z,4.00
2019-04-23T11:41:05.770Z,4.53
2019-04-23T11:46:05.911Z,3.93
2019-04-23T11:51:39.379Z,4.40
2019-04-23T11:53:41.258Z,4.57
2019-04-23T11:56:09.188Z,3.53
2019-04-23T11:58:39.637Z,4.00
2019-04-23T12:04:00.322Z,4.37
2019-04-23T12:06:52.466Z,4.40
2019-04-23T12:12:08.228Z,4.53
2019-04-23T12:22:18.039Z,4.67
2019-04-23T12:25:06.502Z,4.20
2019-04-23T12:27:17.225Z,4.20
2019-04-23T12:29:52.375Z,4.23
2019-04-23T12:37:34.665Z,4.30
2019-04-23T12:40:05.922Z,4.90
2019-04-23T12:45:16.864Z,4.70
2019-04-23T13:00:09.903Z,4.40
2019-04-23T13:02:44.213Z,5.20
2019-04-23T13:05:11.663Z,4.53
2019-04-23T13:10:17.511Z,4.70
2019-04-23T13:12:48.009Z,8.70
2019-04-23T13:15:09.073Z,4.60
2019-04-23T13:17:50.563Z,4.90
2019-04-23T13:25:20.164Z,4.53
2019-04-23T13:28:02.760Z,11.93
2019-04-23T13:35:40.692Z,5.33
2019-04-23T13:40:40.205Z,4.07
2019-04-23T13:48:02.213Z,4.70
2019-04-23T13:50:37.482Z,4.77
2019-04-23T13:53:18.177Z,4.43
2019-04-23T13:55:24.807Z,4.90
2019-04-23T14:01:18.576Z,6.27
2019-04-23T14:03:38.153Z,4.90
2019-04-23T14:06:18.075Z,5.07
2019-04-23T14:08:47.462Z,8.20
2019-04-23T14:16:22.773Z,4.53
2019-04-23T14:18:56.207Z,4.23
2019-04-23T14:24:04.559Z,4.57
2019-04-23T14:26:25.475Z,4.83
2019-04-23T14:28:41.777Z,11.00
2019-04-23T14:36:17.663Z,8.60
2019-04-23T14:38:43.714Z,5.23
2019-04-23T14:43:48.788Z,7.70
2019-04-23T14:46:38.480Z,4.90
2019-04-23T14:48:53.273Z,5.23
2019-04-23T14:51:30.922Z,4.47
2019-04-23T14:58:58.235Z,4.33
2019-04-23T15:01:35.373Z,4.23
2019-04-23T15:13:49.440Z,4.30
2019-04-23T15:16:28.288Z,4.57
2019-04-23T15:24:03.977Z,5.50
2019-04-23T15:27:22.263Z,4.70
2019-04-23T15:28:35.848Z,5.13
2019-04-23T15:31:26.839Z,4.77
2019-04-23T15:34:02.223Z,4.37
2019-04-23T15:36:59.398Z,4.53
2019-04-23T15:39:05.805Z,4.77
2019-04-23T15:41:34.600Z,4.43
2019-04-23T15:44:06.061Z,5.40
2019-04-23T15:49:07.266Z,14.10
2019-04-23T15:54:05.164Z,4.53
2019-04-23T15:56:35.633Z,4.70
2019-04-23T15:59:16.618Z,5.13
2019-04-23T16:01:35.088Z,5.30
2019-04-23T16:03:31.994Z,4.50
2019-04-23T16:06:02.584Z,3.97
2019-04-23T16:09:04.866Z,4.50
2019-04-23T16:11:41.268Z,4.83
2019-04-23T16:14:17.693Z,5.20
2019-04-23T16:16:37.406Z,5.30
2019-04-23T16:19:17.640Z,4.27
2019-04-23T16:21:47.401Z,5.10
2019-04-23T16:24:13.595Z,4.77
2019-04-23T16:26:52.381Z,4.80
2019-04-23T16:29:25.832Z,4.33
2019-04-23T16:31:39.892Z,4.60
2019-04-23T16:34:25.713Z,4.70
2019-04-23T16:36:55.855Z,4.10
2019-04-23T16:39:18.669Z,4.13
2019-04-23T16:41:54.324Z,5.03
2019-04-23T16:44:36.670Z,4.30
2019-04-23T16:47:00.398Z,4.90
2019-04-23T16:51:47.474Z,4.90
2019-04-23T16:54:26.731Z,5.43
2019-04-23T16:57:14.233Z,4.33
2019-04-23T16:59:24.232Z,4.60
2019-04-23T17:02:01.742Z,4.73
2019-04-23T17:04:24.871Z,4.63
2019-04-23T17:09:29.069Z,4.80
2019-04-23T17:11:59.455Z,4.30
2019-04-23T17:16:49.957Z,4.70
2019-04-23T17:22:02.856Z,4.80
2019-04-23T17:27:05.488Z,4.27
2019-04-23T17:29:28.265Z,4.60
2019-04-23T17:31:56.676Z,5.57
2019-04-23T17:34:50.133Z,4.97
2019-04-23T17:37:17.828Z,4.80
2019-04-23T17:39:31.192Z,5.27
2019-04-23T17:47:23.996Z,4.60
2019-04-23T17:49:55.640Z,5.47
2019-04-23T17:52:18.522Z,4.90
2019-04-23T17:54:51.549Z,5.20
2019-04-23T17:57:15.268Z,4.97
2019-04-23T18:00:04.880Z,5.30
2019-04-23T18:02:49.668Z,5.33
2019-04-23T18:07:32.271Z,5.20
2019-04-23T18:10:00.147Z,5.77
2019-04-23T18:12:35.520Z,5.77
2019-04-23T18:14:52.797Z,5.43
2019-04-23T18:17:26.733Z,6.50
2019-04-23T18:20:08.302Z,5.10
2019-04-23T18:27:38.427Z,5.33
2019-04-23T18:30:08.172Z,5.80
2019-04-23T18:32:43.395Z,5.60
2019-04-23T18:37:44.293Z,5.43
2019-04-23T18:40:03.619Z,5.70
2019-04-23T18:45:14.768Z,5.83
2019-04-23T18:47:45.790Z,6.80
2019-04-23T18:50:12.378Z,6.00
2019-04-23T18:52:50.756Z,6.67
2019-04-23T18:55:16.650Z,6.80
2019-04-23T18:57:46.484Z,6.07
2019-04-23T19:00:21.363Z,6.80
2019-04-23T19:02:51.800Z,5.97
2019-04-23T19:08:01.521Z,6.67
2019-04-23T19:13:07.678Z,6.40
2019-04-23T19:15:39.634Z,8.10
2019-04-23T19:17:56.455Z,5.97
2019-04-23T19:20:53.842Z,6.00
2019-04-23T19:23:26.010Z,7.40
2019-04-23T19:28:25.641Z,7.00
2019-04-23T19:30:46.161Z,6.70
2019-04-23T19:33:14.206Z,6.80
2019-04-23T19:38:13.522Z,6.80
2019-04-23T19:40:52.028Z,7.27
2019-04-23T19:43:19.348Z,7.87
2019-04-23T19:48:25.331Z,6.70
2019-04-23T19:51:03.146Z,7.10
2019-04-23T19:53:32.284Z,7.00
2019-04-23T19:55:59.675Z,7.70
2019-04-23T19:58:25.639Z,7.43
2019-04-23T20:01:03.750Z,6.77
2019-04-23T20:05:54.395Z,7.93
2019-04-23T20:10:48.182Z,6.50
2019-04-23T20:13:33.109Z,7.13
2019-04-23T20:18:25.233Z,7.80
2019-04-23T20:20:57.539Z,7.10
2019-04-23T20:23:40.386Z,7.70
2019-04-23T20:26:13.719Z,7.53
2019-04-23T20:39:12.137Z,8.27
2019-04-23T20:42:02.654Z,7.47
2019-04-23T20:44:35.036Z,7.20
2019-04-23T20:47:04.262Z,7.93
2019-04-23T20:49:31.793Z,6.67
2019-04-23T20:52:00.112Z,7.53
2019-04-23T20:54:36.200Z,8.10
2019-04-23T20:57:24.935Z,7.90
2019-04-23T20:59:49.794Z,8.23
2019-04-23T21:02:28.334Z,7.77
2019-04-23T21:04:57.306Z,7.30
2019-04-23T21:07:37.708Z,8.87
2019-04-23T21:10:00.417Z,6.90
2019-04-23T21:12:29.649Z,7.37
2019-04-23T21:17:26.958Z,7.23
2019-04-23T21:19:59.526Z,7.63
2019-04-23T21:24:56.615Z,7.83
2019-04-23T21:30:00.581Z,7.10
2019-04-23T21:32:33.444Z,6.90
2019-04-23T21:35:04.640Z,7.53
2019-04-23T21:37:37.221Z,6.80
2019-04-23T21:40:26.795Z,6.63
2019-04-23T21:42:54.681Z,7.70
2019-04-23T21:45:13.615Z,7.37
2019-04-23T21:47:53.421Z,7.60
2019-04-23T21:50:23.165Z,7.90
2019-04-23T21:52:51.031Z,7.40
2019-04-23T21:55:09.792Z,7.33
2019-04-23T21:57:53.713Z,7.63
2019-04-23T22:00:13.898Z,6.20
2019-04-23T22:05:17.490Z,6.70
2019-04-23T22:07:51.896Z,6.70
2019-04-23T22:12:57.808Z,7.07
2019-04-23T22:15:13.078Z,6.33
2019-04-23T22:17:44.607Z,6.23
2019-04-23T22:22:56.348Z,5.73
2019-04-23T22:25:13.161Z,7.10
2019-04-23T22:27:52.939Z,6.70
2019-04-23T22:30:21.459Z,5.80
2019-04-23T22:32:56.207Z,6.43
2019-04-23T22:35:14.131Z,5.63
2019-04-23T22:40:14.919Z,5.93
2019-04-23T22:45:17.321Z,5.53
2019-04-23T22:50:18.616Z,5.47
2019-04-23T22:52:53.969Z,5.07
2019-04-23T22:55:15.645Z,4.80
2019-04-23T23:05:53.517Z,5.50
2019-04-23T23:08:10.707Z,5.40
2019-04-23T23:10:42.582Z,5.43
2019-04-23T23:15:43.817Z,5.07
2019-04-23T23:18:13.978Z,5.10
2019-04-23T23:23:11.232Z,4.90
2019-04-23T23:25:41.484Z,4.53
2019-04-23T23:28:12.133Z,5.00
2019-04-23T23:30:49.356Z,5.03
2019-04-23T23:33:12.990Z,4.37
2019-04-23T23:35:44.469Z,4.93
2019-04-23T23:38:21.526Z,4.50
2019-04-23T23:40:51.149Z,4.63
2019-04-23T23:43:23.447Z,4.23
2019-04-23T23:48:12.763Z,4.40
2019-04-23T23:55:50.850Z,4.63
